createdAt,value
2022-07-28T00:01:18.447Z,96282.88
2022-07-28T00:03:47.437Z,96277.56
2022-07-28T00:06:14.498Z,96278.91
2022-07-28T00:08:41.470Z,96281.03
2022-07-28T00:11:08.539Z,96283.97
2022-07-28T00:13:35.500Z,96285.56
2022-07-28T00:16:02.870Z,96285.28
2022-07-28T00:18:30.203Z,96284.56
2022-07-28T00:20:58.403Z,96281.31
2022-07-28T00:23:39.011Z,96284.56
2022-07-28T00:26:10.762Z,96278.22
2022-07-28T00:28:38.361Z,96276.16
2022-07-28T00:31:10.899Z,96278.53
2022-07-28T00:33:40.601Z,96281.97
2022-07-28T00:36:11.399Z,96278.00
2022-07-28T00:38:40.875Z,96281.72
2022-07-28T00:41:11.349Z,96285.69
2022-07-28T00:43:45.329Z,96286.06
2022-07-28T00:46:14.184Z,96281.63
2022-07-28T00:48:45.193Z,96277.31
2022-07-28T00:51:12.802Z,96280.28
2022-07-28T00:53:40.561Z,96277.91
2022-07-28T00:56:08.445Z,96277.91
2022-07-28T00:58:37.041Z,96277.13
2022-07-28T01:01:09.204Z,96266.00
2022-07-28T01:03:42.321Z,96265.72
2022-07-28T01:06:09.524Z,96276.84
2022-07-28T01:09:04.003Z,96279.94
2022-07-28T01:11:42.823Z,96277.72
2022-07-28T01:14:44.922Z,96267.69
2022-07-28T01:17:20.804Z,96270.63
2022-07-28T01:20:12.241Z,96264.09
2022-07-28T01:23:00.962Z,96260.59
2022-07-28T01:25:48.537Z,96263.31
2022-07-28T01:28:27.082Z,96256.38
2022-07-28T01:30:58.225Z,96261.13
2022-07-28T01:33:34.128Z,96249.72
2022-07-28T01:36:11.963Z,96257.09
2022-07-28T01:38:40.054Z,96262.38
2022-07-28T01:41:11.842Z,96262.69
2022-07-28T01:43:43.363Z,96264.25
2022-07-28T01:46:11.927Z,96255.31
2022-07-28T01:48:42.665Z,96260.53
2022-07-28T01:51:11.569Z,96257.84
2022-07-28T01:53:40.525Z,96257.84
2022-07-28T01:56:08.481Z,96257.00
2022-07-28T01:58:37.681Z,96262.81
2022-07-28T02:01:06.484Z,96258.78
2022-07-28T02:03:35.322Z,96262.22
2022-07-28T02:06:04.730Z,96247.63
2022-07-28T02:08:34.004Z,96245.50
2022-07-28T02:11:20.806Z,96246.56
2022-07-28T02:13:50.962Z,96241.28
2022-07-28T02:16:22.983Z,96245.34
2022-07-28T02:18:52.483Z,96249.56
2022-07-28T02:21:21.964Z,96249.56
2022-07-28T02:23:52.564Z,96250.69
2022-07-28T02:26:27.322Z,96250.53
2022-07-28T02:28:57.723Z,96249.09
2022-07-28T02:31:30.720Z,96250.88
2022-07-28T02:34:03.881Z,96244.59
2022-07-28T02:36:51.642Z,96247.97
2022-07-28T02:39:24.044Z,96246.91
2022-07-28T02:42:03.962Z,96256.97
2022-07-28T02:44:40.003Z,96254.84
2022-07-28T02:47:10.841Z,96253.53
2022-07-28T02:49:41.366Z,96252.25
2022-07-28T02:52:10.482Z,96252.75
2022-07-28T02:54:38.481Z,96245.09
2022-07-28T02:57:06.962Z,96250.16
2022-07-28T02:59:35.883Z,96254.13
2022-07-28T03:02:04.243Z,96258.03
2022-07-28T03:04:50.425Z,96254.31
2022-07-28T03:07:17.803Z,96257.78
2022-07-28T03:09:46.978Z,96259.06
2022-07-28T03:12:14.523Z,96257.25
2022-07-28T03:14:42.361Z,96258.03
2022-07-28T03:17:09.773Z,96259.72
2022-07-28T03:19:37.562Z,96253.97
2022-07-28T03:22:05.603Z,96252.09
2022-07-28T03:24:54.977Z,96262.69
2022-07-28T03:27:29.282Z,96263.44
2022-07-28T03:30:08.241Z,96264.72
2022-07-28T03:32:38.521Z,96275.84
2022-07-28T03:35:06.842Z,96270.53
2022-07-28T03:37:50.362Z,96272.38
2022-07-28T03:40:18.362Z,96281.88
2022-07-28T03:42:48.082Z,96279.75
2022-07-28T03:45:18.603Z,96282.66
2022-07-28T03:47:54.561Z,96287.13
2022-07-28T03:50:26.651Z,96282.91
2022-07-28T03:52:54.882Z,96290.28
2022-07-28T03:55:22.201Z,96290.56
2022-07-28T03:57:49.697Z,96291.38
2022-07-28T04:00:18.491Z,96296.94
2022-07-28T04:02:46.696Z,96292.91
2022-07-28T04:05:14.610Z,96298.53
2022-07-28T04:07:42.141Z,96300.59
2022-07-28T04:10:11.642Z,96292.09
2022-07-28T04:12:58.081Z,96306.63
2022-07-28T04:15:27.458Z,96301.56
2022-07-28T04:17:56.004Z,96305.78
2022-07-28T04:20:25.441Z,96303.88
2022-07-28T04:22:55.402Z,96315.50
2022-07-28T04:25:25.963Z,96321.81
2022-07-28T04:27:54.290Z,96316.72
2022-07-28T04:30:24.952Z,96324.63
2022-07-28T04:32:54.475Z,96318.47
2022-07-28T04:35:24.485Z,96318.13
2022-07-28T04:37:52.162Z,96319.97
2022-07-28T04:40:19.362Z,96322.03
2022-07-28T04:42:46.776Z,96319.81
2022-07-28T04:45:14.042Z,96331.94
2022-07-28T04:47:41.328Z,96331.03
2022-07-28T04:50:10.247Z,96331.75
2022-07-28T04:52:38.764Z,96339.63
2022-07-28T04:55:06.852Z,96338.91
2022-07-28T04:57:34.002Z,96338.56
2022-07-28T05:00:01.370Z,96341.66
2022-07-28T05:02:28.562Z,96338.63
2022-07-28T05:04:55.784Z,96343.31
2022-07-28T05:07:23.005Z,96344.03
2022-07-28T05:09:50.202Z,96337.50
2022-07-28T05:12:17.256Z,96341.56
2022-07-28T05:14:44.323Z,96350.41
2022-07-28T05:17:11.498Z,96352.88
2022-07-28T05:19:40.603Z,96353.09
2022-07-28T05:22:07.768Z,96353.59
2022-07-28T05:24:35.012Z,96356.38
2022-07-28T05:27:02.286Z,96350.66
2022-07-28T05:29:43.106Z,96356.31
2022-07-28T05:32:17.005Z,96360.50
2022-07-28T05:34:46.003Z,96369.50
2022-07-28T05:37:13.242Z,96354.06
2022-07-28T05:39:40.521Z,96361.13
2022-07-28T05:42:07.881Z,96352.28
2022-07-28T05:44:38.296Z,96355.66
2022-07-28T05:47:06.404Z,96354.47
2022-07-28T05:49:34.163Z,96357.44
2022-07-28T05:52:01.482Z,96364.13
2022-07-28T05:54:28.763Z,96367.00
2022-07-28T05:56:56.042Z,96367.56
2022-07-28T05:59:23.323Z,96371.00
2022-07-28T06:01:50.596Z,96378.44
2022-07-28T06:04:26.986Z,96372.53
2022-07-28T06:06:55.768Z,96374.91
2022-07-28T06:09:23.209Z,96375.19
2022-07-28T06:11:51.030Z,96380.03
2022-07-28T06:14:19.214Z,96388.00
2022-07-28T06:16:51.603Z,96383.22
2022-07-28T06:19:19.803Z,96384.03
2022-07-28T06:21:47.922Z,96382.69
2022-07-28T06:24:15.496Z,96389.78
2022-07-28T06:26:44.957Z,96395.38
2022-07-28T06:29:12.923Z,96389.59
2022-07-28T06:31:40.501Z,96394.00
2022-07-28T06:34:07.965Z,96386.44
2022-07-28T06:36:35.241Z,96382.88
2022-07-28T06:39:02.682Z,96384.28
2022-07-28T06:41:29.964Z,96372.63
2022-07-28T06:43:57.164Z,96369.97
2022-07-28T06:46:24.514Z,96376.38
2022-07-28T06:48:51.774Z,96371.31
2022-07-28T06:51:20.271Z,96367.56
2022-07-28T06:53:48.954Z,96369.16
2022-07-28T06:56:17.243Z,96368.44
2022-07-28T06:58:47.318Z,96373.13
2022-07-28T07:01:15.937Z,96372.50
2022-07-28T07:03:44.579Z,96364.53
2022-07-28T07:06:11.921Z,96367.06
2022-07-28T07:08:39.323Z,96376.72
2022-07-28T07:11:06.922Z,96370.47
2022-07-28T07:13:34.243Z,96371.34
2022-07-28T07:16:01.742Z,96380.63
2022-07-28T07:18:29.056Z,96371.88
2022-07-28T07:20:58.002Z,96381.22
2022-07-28T07:23:25.403Z,96373.38
2022-07-28T07:25:52.722Z,96376.88
2022-07-28T07:28:20.002Z,96375.00
2022-07-28T07:30:47.442Z,96373.94
2022-07-28T07:33:14.924Z,96376.44
2022-07-28T07:35:42.401Z,96372.97
2022-07-28T07:38:09.763Z,96376.66
2022-07-28T07:40:37.163Z,96374.28
2022-07-28T07:43:05.203Z,96365.31
2022-07-28T07:45:32.484Z,96369.25
2022-07-28T07:48:01.973Z,96380.25
2022-07-28T07:50:29.646Z,96375.53
2022-07-28T07:52:57.203Z,96376.94
2022-07-28T07:55:24.527Z,96374.72
2022-07-28T07:57:51.882Z,96377.69
2022-07-28T08:00:28.558Z,96378.13
2022-07-28T08:02:58.283Z,96372.88
2022-07-28T08:05:35.317Z,96373.06
2022-07-28T08:08:03.963Z,96379.59
2022-07-28T08:10:31.442Z,96373.69
2022-07-28T08:12:58.562Z,96381.78
2022-07-28T08:15:25.962Z,96378.09
2022-07-28T08:17:53.483Z,96377.31
2022-07-28T08:20:20.881Z,96369.25
2022-07-28T08:22:53.842Z,96376.16
2022-07-28T08:25:21.762Z,96378.50
2022-07-28T08:27:49.442Z,96376.88
2022-07-28T08:30:22.618Z,96376.00
2022-07-28T08:32:56.940Z,96378.03
2022-07-28T08:35:34.953Z,96377.47
2022-07-28T08:38:06.567Z,96377.53
2022-07-28T08:40:36.844Z,96373.66
2022-07-28T08:43:15.601Z,96378.97
2022-07-28T08:45:47.689Z,96369.38
2022-07-28T08:48:16.407Z,96361.91
2022-07-28T08:50:46.362Z,96375.81
2022-07-28T08:53:15.481Z,96374.50
2022-07-28T08:55:43.961Z,96368.06
2022-07-28T08:58:13.123Z,96373.03
2022-07-28T09:00:41.642Z,96365.91
2022-07-28T09:03:11.067Z,96370.59
2022-07-28T09:05:43.841Z,96371.78
2022-07-28T09:08:12.924Z,96370.22
2022-07-28T09:10:40.121Z,96371.00
2022-07-28T09:13:07.401Z,96365.88
2022-07-28T09:15:35.443Z,96373.72
2022-07-28T09:18:03.092Z,96373.84
2022-07-28T09:20:30.643Z,96366.25
2022-07-28T09:23:03.241Z,96365.38
2022-07-28T09:25:31.163Z,96366.56
2022-07-28T09:28:09.286Z,96362.38
2022-07-28T09:30:45.644Z,96370.88
2022-07-28T09:33:42.814Z,96369.28
2022-07-28T09:36:16.270Z,96365.03
2022-07-28T09:38:44.120Z,96362.31
2022-07-28T09:41:11.922Z,96364.47
2022-07-28T09:43:39.961Z,96353.50
2022-07-28T09:46:10.293Z,96354.81
2022-07-28T09:48:49.926Z,96348.22
2022-07-28T09:51:19.921Z,96351.66
2022-07-28T09:53:47.363Z,96364.13
2022-07-28T09:56:15.182Z,96346.47
2022-07-28T09:58:52.642Z,96350.41
2022-07-28T10:01:35.230Z,96354.91
2022-07-28T10:04:04.771Z,96345.47
2022-07-28T10:06:34.642Z,96344.00
2022-07-28T10:09:06.202Z,96348.69
2022-07-28T10:11:36.518Z,96342.59
2022-07-28T10:14:07.562Z,96351.84
2022-07-28T10:16:36.983Z,96352.69
2022-07-28T10:19:06.201Z,96342.22
2022-07-28T10:21:35.282Z,96343.84
2022-07-28T10:24:08.200Z,96338.81
2022-07-28T10:26:44.482Z,96338.75
2022-07-28T10:29:17.962Z,96335.28
2022-07-28T10:31:55.769Z,96328.53
2022-07-28T10:34:25.517Z,96328.34
2022-07-28T10:36:56.052Z,96321.47
2022-07-28T10:39:29.401Z,96319.06
2022-07-28T10:41:56.963Z,96328.41
2022-07-28T10:44:25.242Z,96323.94
2022-07-28T10:46:53.175Z,96324.09
2022-07-28T10:49:21.539Z,96320.84
2022-07-28T10:52:19.723Z,96311.66
2022-07-28T10:54:47.348Z,96316.88
2022-07-28T10:57:16.964Z,96311.88
2022-07-28T11:00:12.718Z,96308.22
2022-07-28T11:13:08.241Z,96320.75
2022-07-28T11:15:42.360Z,96312.78
2022-07-28T11:18:10.161Z,96316.13
2022-07-28T11:21:00.337Z,96309.66
2022-07-28T11:23:46.225Z,96310.25
2022-07-28T11:26:20.402Z,96311.97
2022-07-28T11:29:07.249Z,96303.63
2022-07-28T11:31:47.043Z,96304.09
2022-07-28T11:34:25.487Z,96295.41
2022-07-28T11:37:04.688Z,96303.53
2022-07-28T11:39:43.373Z,96307.44
2022-07-28T11:42:31.119Z,96300.81
2022-07-28T11:45:22.721Z,96292.47
2022-07-28T11:48:17.205Z,96294.16
2022-07-28T11:51:04.411Z,96288.22
2022-07-28T11:53:49.681Z,96291.34
2022-07-28T11:56:29.497Z,96295.28
2022-07-28T11:59:02.122Z,96293.09
2022-07-28T12:01:31.928Z,96292.56
2022-07-28T12:04:00.982Z,96293.41
2022-07-28T12:06:43.312Z,96290.72
2022-07-28T12:09:11.525Z,96283.06
2022-07-28T12:11:43.963Z,96281.25
2022-07-28T12:14:13.831Z,96275.56
2022-07-28T12:16:44.352Z,96266.00
2022-07-28T12:19:15.422Z,96263.31
2022-07-28T12:21:53.482Z,96267.19
2022-07-28T12:24:30.962Z,96265.72
2022-07-28T12:27:02.602Z,96256.03
2022-07-28T12:29:35.627Z,96265.31
2022-07-28T12:32:06.514Z,96274.25
2022-07-28T12:34:38.166Z,96260.28
2022-07-28T12:37:10.170Z,96265.31
2022-07-28T12:39:42.897Z,96257.94
2022-07-28T12:42:12.652Z,96253.31
2022-07-28T12:44:42.001Z,96252.91
2022-07-28T12:47:12.694Z,96245.13
2022-07-28T12:49:45.017Z,96251.34
2022-07-28T12:52:23.442Z,96247.50
2022-07-28T12:54:56.609Z,96247.09
2022-07-28T12:57:50.849Z,96244.72
2022-07-28T13:00:24.592Z,96243.97
2022-07-28T13:02:56.175Z,96239.31
2022-07-28T13:05:56.801Z,96238.94
2022-07-28T13:08:27.505Z,96238.53
2022-07-28T13:10:58.801Z,96236.91
2022-07-28T13:13:27.448Z,96230.72
2022-07-28T13:16:14.092Z,96228.66
2022-07-28T13:18:53.771Z,96226.66
2022-07-28T13:21:56.605Z,96222.41
2022-07-28T13:24:28.527Z,96218.06
2022-07-28T13:26:56.642Z,96211.91
2022-07-28T13:29:24.401Z,96216.56
2022-07-28T13:31:52.541Z,96219.34
2022-07-28T13:34:19.931Z,96220.50
2022-07-28T13:36:47.290Z,96219.81
2022-07-28T13:39:14.762Z,96210.22
2022-07-28T13:41:58.549Z,96209.03
2022-07-28T13:44:30.361Z,96200.13
2022-07-28T13:46:59.101Z,96197.03
2022-07-28T13:49:32.038Z,96193.09
2022-07-28T13:52:00.610Z,96193.09
2022-07-28T13:54:28.928Z,96201.22
2022-07-28T13:57:11.164Z,96199.28
2022-07-28T13:59:39.570Z,96195.81
2022-07-28T14:02:15.136Z,96194.66
2022-07-28T14:04:50.172Z,96195.06
2022-07-28T14:07:21.105Z,96188.47
2022-07-28T14:09:50.952Z,96189.59
2022-07-28T14:12:18.886Z,96191.19
2022-07-28T14:14:47.981Z,96180.69
2022-07-28T14:17:44.889Z,96186.53
2022-07-28T14:20:14.049Z,96174.13
2022-07-28T14:22:42.365Z,96176.81
2022-07-28T14:25:10.089Z,96167.50
2022-07-28T14:27:37.450Z,96172.56
2022-07-28T14:30:06.256Z,96174.88
2022-07-28T14:32:33.725Z,96169.44
2022-07-28T14:35:02.252Z,96169.03
2022-07-28T14:37:47.085Z,96165.97
2022-07-28T14:40:18.041Z,96171.38
2022-07-28T14:42:45.561Z,96173.72
2022-07-28T14:45:13.162Z,96163.63
2022-07-28T14:47:44.167Z,96168.66
2022-07-28T14:50:13.325Z,96167.13
2022-07-28T14:52:40.766Z,96158.59
2022-07-28T14:55:12.722Z,96164.00
2022-07-28T14:57:51.961Z,96158.53
2022-07-28T15:00:23.242Z,96153.44
2022-07-28T15:02:54.397Z,96148.63
2022-07-28T15:05:23.140Z,96150.91
2022-07-28T15:07:52.457Z,96154.69
2022-07-28T15:10:21.012Z,96145.63
2022-07-28T15:12:50.259Z,96146.38
2022-07-28T15:15:17.762Z,96151.72
2022-07-28T15:17:44.882Z,96147.81
2022-07-28T15:20:12.443Z,96147.75
2022-07-28T15:22:39.724Z,96144.25
2022-07-28T15:25:07.322Z,96136.97
2022-07-28T15:27:34.602Z,96133.50
2022-07-28T15:30:03.335Z,96134.72
2022-07-28T15:32:31.846Z,96129.34
2022-07-28T15:34:59.816Z,96136.28
2022-07-28T15:37:28.341Z,96130.16
2022-07-28T15:39:55.765Z,96130.50
2022-07-28T15:42:23.081Z,96125.03
2022-07-28T15:44:51.804Z,96123.88
2022-07-28T15:47:19.139Z,96124.56
2022-07-28T15:49:46.483Z,96125.34
2022-07-28T15:52:14.923Z,96121.50
2022-07-28T15:54:42.482Z,96113.00
2022-07-28T15:57:09.882Z,96117.19
2022-07-28T15:59:49.589Z,96119.47
2022-07-28T16:02:18.875Z,96125.13
2022-07-28T16:04:49.032Z,96118.69
2022-07-28T16:07:23.359Z,96117.59
2022-07-28T16:09:52.562Z,96112.13
2022-07-28T16:12:20.286Z,96121.41
2022-07-28T16:14:48.002Z,96123.97
2022-07-28T16:17:15.084Z,96126.63
2022-07-28T16:19:50.603Z,96121.16
2022-07-28T16:22:19.226Z,96129.56
2022-07-28T16:24:46.859Z,96124.13
2022-07-28T16:27:15.068Z,96120.19
2022-07-28T16:29:43.762Z,96116.91
2022-07-28T16:32:11.523Z,96120.28
2022-07-28T16:34:38.641Z,96112.00
2022-07-28T16:37:06.250Z,96115.34
2022-07-28T16:39:34.805Z,96113.09
2022-07-28T16:42:03.207Z,96111.50
2022-07-28T16:44:31.157Z,96116.38
2022-07-28T16:46:58.520Z,96105.78
2022-07-28T16:49:26.053Z,96100.16
2022-07-28T16:51:54.841Z,96105.44
2022-07-28T16:54:22.408Z,96103.06
2022-07-28T16:56:49.642Z,96102.19
2022-07-28T16:59:17.281Z,96101.72
2022-07-28T17:01:46.416Z,96103.59
2022-07-28T17:04:16.004Z,96103.91
2022-07-28T17:06:43.690Z,96109.19
2022-07-28T17:09:11.658Z,96110.28
2022-07-28T17:11:39.482Z,96108.81
2022-07-28T17:14:06.642Z,96095.25
2022-07-28T17:16:34.082Z,96109.13
2022-07-28T17:19:01.420Z,96107.50
2022-07-28T17:21:28.762Z,96103.06
2022-07-28T17:23:55.964Z,96103.25
2022-07-28T17:27:32.483Z,96100.91
2022-07-28T17:29:10.641Z,96115.25
2022-07-28T17:31:39.433Z,96112.47
2022-07-28T17:34:08.569Z,96113.06
2022-07-28T17:36:36.645Z,96110.22
2022-07-28T17:39:07.362Z,96107.03
2022-07-28T17:41:35.164Z,96106.09
2022-07-28T17:44:03.010Z,96114.47
2022-07-28T17:46:30.304Z,96108.94
2022-07-28T17:48:58.700Z,96107.31
2022-07-28T17:51:26.969Z,96107.16
2022-07-28T17:53:54.241Z,96105.59
2022-07-28T17:56:23.371Z,96114.75
2022-07-28T17:58:50.602Z,96101.47
2022-07-28T18:01:18.000Z,96104.09
2022-07-28T18:03:56.380Z,96105.78
2022-07-28T18:06:25.884Z,96109.88
2022-07-28T18:08:53.003Z,96115.34
2022-07-28T18:11:20.361Z,96109.72
2022-07-28T18:14:03.605Z,96122.91
2022-07-28T18:16:34.735Z,96115.72
2022-07-28T18:19:03.410Z,96121.94
2022-07-28T18:21:30.642Z,96120.81
2022-07-28T18:23:57.922Z,96124.41
2022-07-28T18:26:25.081Z,96130.66
2022-07-28T18:28:52.483Z,96130.03
2022-07-28T18:31:19.896Z,96136.69
2022-07-28T18:33:47.161Z,96133.63
2022-07-28T18:36:14.321Z,96141.56
2022-07-28T18:38:42.003Z,96141.63
2022-07-28T18:41:09.163Z,96141.41
2022-07-28T18:43:37.343Z,96144.66
2022-07-28T18:46:05.583Z,96150.97
2022-07-28T18:48:32.884Z,96151.09
2022-07-28T18:51:00.088Z,96147.06
2022-07-28T18:53:29.003Z,96159.91
2022-07-28T18:55:56.202Z,96160.50
2022-07-28T18:58:23.471Z,96166.75
2022-07-28T19:00:50.725Z,96167.66
2022-07-28T19:03:18.059Z,96171.31
2022-07-28T19:05:46.374Z,96176.59
2022-07-28T19:08:13.851Z,96183.25
2022-07-28T19:10:41.171Z,96182.94
2022-07-28T19:13:12.350Z,96188.97
2022-07-28T19:15:41.856Z,96192.09
2022-07-28T19:18:11.681Z,96192.41
2022-07-28T19:20:44.844Z,96199.78
2022-07-28T19:23:12.041Z,96202.09
2022-07-28T19:25:39.922Z,96208.25
2022-07-28T19:28:07.604Z,96208.41
2022-07-28T19:30:35.328Z,96222.13
2022-07-28T19:33:03.765Z,96221.25
2022-07-28T19:35:31.202Z,96217.66
2022-07-28T19:38:00.350Z,96213.28
2022-07-28T19:40:32.095Z,96221.06
2022-07-28T19:43:00.370Z,96220.59
2022-07-28T19:45:27.604Z,96224.06
2022-07-28T19:47:55.092Z,96219.25
2022-07-28T19:50:22.562Z,96221.03
2022-07-28T19:52:50.054Z,96226.59
2022-07-28T19:55:17.610Z,96226.13
2022-07-28T19:57:48.171Z,96226.00
2022-07-28T20:00:18.923Z,96227.09
2022-07-28T20:02:46.324Z,96226.66
2022-07-28T20:05:13.931Z,96231.88
2022-07-28T20:07:41.402Z,96227.19
2022-07-28T20:10:09.042Z,96229.88
2022-07-28T20:12:37.046Z,96243.91
2022-07-28T20:15:05.255Z,96240.75
2022-07-28T20:17:38.423Z,96241.84
2022-07-28T20:20:12.073Z,96232.28
2022-07-28T20:22:43.042Z,96238.28
2022-07-28T20:25:11.522Z,96234.03
2022-07-28T20:27:40.364Z,96231.34
2022-07-28T20:30:13.442Z,96233.25
2022-07-28T20:32:42.310Z,96244.59
2022-07-28T20:35:10.733Z,96245.22
2022-07-28T20:37:38.485Z,96245.56
2022-07-28T20:40:07.735Z,96257.03
2022-07-28T20:42:35.923Z,96243.88
2022-07-28T20:45:04.450Z,96256.13
2022-07-28T20:47:33.019Z,96256.00
2022-07-28T20:50:01.163Z,96253.78
2022-07-28T20:52:28.762Z,96256.94
2022-07-28T20:54:56.045Z,96262.72
2022-07-28T20:57:23.720Z,96251.56
2022-07-28T20:59:52.394Z,96256.94
2022-07-28T21:02:20.931Z,96251.75
2022-07-28T21:04:50.185Z,96260.44
2022-07-28T21:07:59.534Z,96252.72
2022-07-28T21:10:09.962Z,96251.34
2022-07-28T21:12:38.122Z,96246.94
2022-07-28T21:15:07.012Z,96247.47
2022-07-28T21:17:34.285Z,96251.41
2022-07-28T21:20:01.603Z,96252.22
2022-07-28T21:22:28.841Z,96254.44
2022-07-28T21:24:56.167Z,96257.75
2022-07-28T21:27:24.400Z,96255.72
2022-07-28T21:32:18.293Z,96243.97
2022-07-28T21:34:45.721Z,96240.69
2022-07-28T21:37:14.087Z,96254.69
2022-07-28T21:39:41.404Z,96251.53
2022-07-28T21:42:09.505Z,96246.69
2022-07-28T21:44:37.824Z,96252.97
2022-07-28T21:47:05.291Z,96253.28
2022-07-28T21:49:32.862Z,96252.84
2022-07-28T21:52:00.341Z,96251.19
2022-07-28T21:54:28.128Z,96262.16
2022-07-28T21:56:55.402Z,96263.88
2022-07-28T21:59:22.657Z,96263.28
2022-07-28T22:01:50.121Z,96262.81
2022-07-28T22:04:18.025Z,96259.41
2022-07-28T22:06:46.625Z,96257.84
2022-07-28T22:09:15.261Z,96262.72
2022-07-28T22:11:42.643Z,96270.09
2022-07-28T22:14:10.443Z,96271.34
2022-07-28T22:16:37.668Z,96271.97
2022-07-28T22:19:05.250Z,96272.94
2022-07-28T22:21:32.494Z,96260.34
2022-07-28T22:23:59.882Z,96269.78
2022-07-28T22:26:27.283Z,96268.53
2022-07-28T22:28:54.643Z,96263.19
2022-07-28T22:31:21.992Z,96258.47
2022-07-28T22:33:49.403Z,96261.94
2022-07-28T22:36:17.492Z,96264.28
2022-07-28T22:38:44.881Z,96268.84
2022-07-28T22:41:12.082Z,96261.47
2022-07-28T22:43:39.363Z,96252.34
2022-07-28T22:46:06.594Z,96250.63
2022-07-28T22:48:33.883Z,96245.13
2022-07-28T22:51:01.091Z,96242.78
2022-07-28T22:53:28.402Z,96241.69
2022-07-28T22:55:55.604Z,96243.25
2022-07-28T22:58:22.922Z,96250.28
2022-07-28T23:00:51.459Z,96253.13
2022-07-28T23:03:19.547Z,96243.84
2022-07-28T23:05:47.083Z,96245.75
2022-07-28T23:08:14.482Z,96245.44
2022-07-28T23:10:41.731Z,96246.78
2022-07-28T23:13:09.124Z,96250.75
2022-07-28T23:15:39.406Z,96241.94
2022-07-28T23:18:14.363Z,96248.88
2022-07-28T23:20:43.083Z,96242.22
2022-07-28T23:23:11.493Z,96242.69
2022-07-28T23:25:43.042Z,96238.91
2022-07-28T23:28:11.110Z,96241.59
2022-07-28T23:30:38.763Z,96240.16
2022-07-28T23:33:06.688Z,96232.81
2022-07-28T23:35:36.053Z,96237.19
2022-07-28T23:38:03.686Z,96234.81
2022-07-28T23:40:31.243Z,96229.19
2022-07-28T23:42:58.644Z,96225.91
2022-07-28T23:45:25.962Z,96225.59
2022-07-28T23:47:58.217Z,96225.44
2022-07-28T23:50:27.003Z,96228.25
2022-07-28T23:52:54.323Z,96229.03
2022-07-28T23:55:21.603Z,96227.13
2022-07-28T23:57:48.923Z,96233.75
